sensor_id;sensor_type;location;lat;lon;timestamp;pressure;altitude;pressure_sealevel;temperature;humidity
54512;BME280;40419;47.438;19.026;2022-07-23T00:00:53;99760.13;;;26.43;46.10
54512;BME280;40419;47.438;19.026;2022-07-23T00:03:21;99760.44;;;26.41;45.64
54512;BME280;40419;47.438;19.026;2022-07-23T00:05:50;99757.97;;;26.40;45.80
54512;BME280;40419;47.438;19.026;2022-07-23T00:08:15;99755.34;;;26.34;47.25
54512;BME280;40419;47.438;19.026;2022-07-23T00:10:43;99762.75;;;26.11;47.56
54512;BME280;40419;47.438;19.026;2022-07-23T00:13:11;99756.34;;;25.69;49.10
54512;BME280;40419;47.438;19.026;2022-07-23T00:15:37;99765.97;;;25.44;49.94
54512;BME280;40419;47.438;19.026;2022-07-23T00:18:06;99762.22;;;25.35;50.51
54512;BME280;40419;47.438;19.026;2022-07-23T00:20:37;99763.78;;;25.41;50.76
54512;BME280;40419;47.438;19.026;2022-07-23T00:23:03;99761.66;;;25.19;51.63
54512;BME280;40419;47.438;19.026;2022-07-23T00:25:31;99766.53;;;25.08;51.82
54512;BME280;40419;47.438;19.026;2022-07-23T00:28:00;99758.72;;;25.29;50.48
54512;BME280;40419;47.438;19.026;2022-07-23T00:30:26;99758.47;;;25.44;49.66
54512;BME280;40419;47.438;19.026;2022-07-23T00:32:59;99757.75;;;25.53;49.26
54512;BME280;40419;47.438;19.026;2022-07-23T00:35:31;99770.50;;;25.68;48.41
54512;BME280;40419;47.438;19.026;2022-07-23T00:37:58;99770.41;;;25.73;47.89
54512;BME280;40419;47.438;19.026;2022-07-23T00:40:26;99779.81;;;25.44;49.46
54512;BME280;40419;47.438;19.026;2022-07-23T00:42:53;99773.56;;;25.52;50.25
54512;BME280;40419;47.438;19.026;2022-07-23T00:45:22;99777.84;;;25.31;50.78
54512;BME280;40419;47.438;19.026;2022-07-23T00:47:48;99784.19;;;25.12;51.82
54512;BME280;40419;47.438;19.026;2022-07-23T00:50:14;99787.09;;;25.21;51.25
54512;BME280;40419;47.438;19.026;2022-07-23T00:52:40;99776.78;;;25.07;51.42
54512;BME280;40419;47.438;19.026;2022-07-23T00:55:11;99784.88;;;24.85;52.50
54512;BME280;40419;47.438;19.026;2022-07-23T00:57:38;99781.69;;;24.77;52.85
54512;BME280;40419;47.438;19.026;2022-07-23T01:00:08;99777.56;;;24.75;52.61
54512;BME280;40419;47.438;19.026;2022-07-23T01:02:35;99778.09;;;24.58;53.43
54512;BME280;40419;47.438;19.026;2022-07-23T01:05:03;99772.69;;;24.67;54.48
54512;BME280;40419;47.438;19.026;2022-07-23T01:07:29;99782.88;;;24.71;54.09
54512;BME280;40419;47.438;19.026;2022-07-23T01:09:58;99770.66;;;24.53;54.40
54512;BME280;40419;47.438;19.026;2022-07-23T01:12:29;99768.41;;;24.55;54.81
54512;BME280;40419;47.438;19.026;2022-07-23T01:14:55;99772.25;;;24.79;53.97
54512;BME280;40419;47.438;19.026;2022-07-23T01:17:21;99777.13;;;24.68;54.91
54512;BME280;40419;47.438;19.026;2022-07-23T01:19:51;99768.09;;;24.57;54.99
54512;BME280;40419;47.438;19.026;2022-07-23T01:22:18;99773.47;;;24.48;55.20
54512;BME280;40419;47.438;19.026;2022-07-23T01:24:44;99767.13;;;24.48;55.08
54512;BME280;40419;47.438;19.026;2022-07-23T01:27:10;99761.66;;;24.42;54.93
54512;BME280;40419;47.438;19.026;2022-07-23T01:29:40;99771.66;;;24.19;55.50
54512;BME280;40419;47.438;19.026;2022-07-23T01:32:11;99765.69;;;24.31;55.29
54512;BME280;40419;47.438;19.026;2022-07-23T01:34:37;99767.88;;;24.34;54.77
54512;BME280;40419;47.438;19.026;2022-07-23T01:37:04;99764.25;;;24.58;53.69
54512;BME280;40419;47.438;19.026;2022-07-23T01:39:32;99768.75;;;24.49;53.60
54512;BME280;40419;47.438;19.026;2022-07-23T01:42:00;99752.91;;;24.54;53.62
54512;BME280;40419;47.438;19.026;2022-07-23T01:44:29;99756.16;;;24.62;53.09
54512;BME280;40419;47.438;19.026;2022-07-23T01:46:57;99757.44;;;24.69;52.73
54512;BME280;40419;47.438;19.026;2022-07-23T01:49:28;99757.06;;;24.76;52.98
54512;BME280;40419;47.438;19.026;2022-07-23T01:51:56;99764.09;;;24.68;53.06
54512;BME280;40419;47.438;19.026;2022-07-23T01:54:38;99754.16;;;24.67;53.09
54512;BME280;40419;47.438;19.026;2022-07-23T01:57:09;99755.72;;;24.73;52.25
54512;BME280;40419;47.438;19.026;2022-07-23T01:59:38;99756.63;;;24.69;52.68
54512;BME280;40419;47.438;19.026;2022-07-23T02:02:08;99754.97;;;24.68;52.86
54512;BME280;40419;47.438;19.026;2022-07-23T02:04:36;99761.91;;;24.65;53.06
54512;BME280;40419;47.438;19.026;2022-07-23T02:07:03;99759.31;;;24.74;51.98
54512;BME280;40419;47.438;19.026;2022-07-23T02:09:33;99755.78;;;24.68;52.45
54512;BME280;40419;47.438;19.026;2022-07-23T02:12:01;99757.19;;;24.85;51.92
54512;BME280;40419;47.438;19.026;2022-07-23T02:14:29;99756.47;;;24.79;52.09
54512;BME280;40419;47.438;19.026;2022-07-23T02:16:55;99755.94;;;24.77;52.03
54512;BME280;40419;47.438;19.026;2022-07-23T02:19:24;99771.78;;;24.90;51.77
54512;BME280;40419;47.438;19.026;2022-07-23T02:21:49;99770.03;;;24.81;52.27
54512;BME280;40419;47.438;19.026;2022-07-23T02:24:18;99759.84;;;24.76;51.74
54512;BME280;40419;47.438;19.026;2022-07-23T02:26:47;99756.19;;;24.81;51.96
54512;BME280;40419;47.438;19.026;2022-07-23T02:29:12;99753.09;;;24.82;51.21
54512;BME280;40419;47.438;19.026;2022-07-23T02:31:38;99758.94;;;24.81;51.52
54512;BME280;40419;47.438;19.026;2022-07-23T02:34:05;99763.28;;;24.87;51.91
54512;BME280;40419;47.438;19.026;2022-07-23T02:36:37;99759.06;;;24.89;51.98
54512;BME280;40419;47.438;19.026;2022-07-23T02:39:07;99758.63;;;24.82;51.29
54512;BME280;40419;47.438;19.026;2022-07-23T02:41:34;99755.19;;;24.71;51.47
54512;BME280;40419;47.438;19.026;2022-07-23T02:44:02;99757.66;;;24.73;51.15
54512;BME280;40419;47.438;19.026;2022-07-23T02:46:33;99761.88;;;24.70;51.68
54512;BME280;40419;47.438;19.026;2022-07-23T02:49:03;99762.53;;;24.62;51.99
54512;BME280;40419;47.438;19.026;2022-07-23T02:51:31;99760.72;;;24.52;52.00
54512;BME280;40419;47.438;19.026;2022-07-23T02:54:01;99755.59;;;24.40;52.82
54512;BME280;40419;47.438;19.026;2022-07-23T02:56:27;99752.03;;;24.40;53.18
54512;BME280;40419;47.438;19.026;2022-07-23T02:58:53;99748.28;;;24.31;53.81
54512;BME280;40419;47.438;19.026;2022-07-23T03:01:23;99755.81;;;24.25;54.07
54512;BME280;40419;47.438;19.026;2022-07-23T03:03:48;99753.53;;;24.32;53.01
54512;BME280;40419;47.438;19.026;2022-07-23T03:06:14;99749.69;;;24.47;52.13
54512;BME280;40419;47.438;19.026;2022-07-23T03:08:40;99749.28;;;24.59;51.93
54512;BME280;40419;47.438;19.026;2022-07-23T03:11:07;99754.34;;;24.52;52.13
54512;BME280;40419;47.438;19.026;2022-07-23T03:13:38;99758.16;;;24.37;52.77
54512;BME280;40419;47.438;19.026;2022-07-23T03:16:04;99750.25;;;24.06;55.04
54512;BME280;40419;47.438;19.026;2022-07-23T03:18:35;99754.19;;;24.00;55.12
54512;BME280;40419;47.438;19.026;2022-07-23T03:21:08;99756.03;;;24.10;54.99
54512;BME280;40419;47.438;19.026;2022-07-23T03:23:37;99759.78;;;23.95;56.44
54512;BME280;40419;47.438;19.026;2022-07-23T03:26:02;99762.88;;;24.12;55.59
54512;BME280;40419;47.438;19.026;2022-07-23T03:28:30;99755.75;;;24.30;54.52
54512;BME280;40419;47.438;19.026;2022-07-23T03:30:56;99761.75;;;24.56;53.18
54512;BME280;40419;47.438;19.026;2022-07-23T03:33:21;99754.16;;;24.67;52.66
54512;BME280;40419;47.438;19.026;2022-07-23T03:35:49;99754.00;;;24.77;51.67
54512;BME280;40419;47.438;19.026;2022-07-23T03:38:20;99758.22;;;25.08;50.99
54512;BME280;40419;47.438;19.026;2022-07-23T03:40:48;99761.34;;;25.20;50.35
54512;BME280;40419;47.438;19.026;2022-07-23T03:43:14;99755.25;;;25.37;49.77
54512;BME280;40419;47.438;19.026;2022-07-23T03:45:39;99765.13;;;25.43;50.02
54512;BME280;40419;47.438;19.026;2022-07-23T03:48:08;99758.53;;;25.39;49.30
54512;BME280;40419;47.438;19.026;2022-07-23T03:50:36;99759.19;;;25.50;49.39
54512;BME280;40419;47.438;19.026;2022-07-23T03:53:02;99763.72;;;25.60;48.56
54512;BME280;40419;47.438;19.026;2022-07-23T03:55:32;99758.59;;;25.67;48.71
54512;BME280;40419;47.438;19.026;2022-07-23T03:57:57;99762.19;;;25.68;49.48
54512;BME280;40419;47.438;19.026;2022-07-23T04:00:25;99764.47;;;25.79;48.35
54512;BME280;40419;47.438;19.026;2022-07-23T04:02:51;99764.16;;;25.95;47.79
54512;BME280;40419;47.438;19.026;2022-07-23T04:05:18;99770.56;;;26.09;47.39
54512;BME280;40419;47.438;19.026;2022-07-23T04:07:51;99765.00;;;26.09;47.69
54512;BME280;40419;47.438;19.026;2022-07-23T04:10:21;99760.78;;;26.26;47.45
54512;BME280;40419;47.438;19.026;2022-07-23T04:12:51;99770.72;;;26.27;47.30
54512;BME280;40419;47.438;19.026;2022-07-23T04:15:19;99767.25;;;26.35;47.34
54512;BME280;40419;47.438;19.026;2022-07-23T04:17:45;99772.09;;;26.66;46.68
54512;BME280;40419;47.438;19.026;2022-07-23T04:20:17;99771.38;;;26.38;46.64
54512;BME280;40419;47.438;19.026;2022-07-23T04:22:49;99772.81;;;26.21;46.90
54512;BME280;40419;47.438;19.026;2022-07-23T04:25:17;99772.19;;;26.24;47.80
54512;BME280;40419;47.438;19.026;2022-07-23T04:27:43;99776.72;;;26.06;47.99
54512;BME280;40419;47.438;19.026;2022-07-23T04:30:11;99766.31;;;25.84;48.82
54512;BME280;40419;47.438;19.026;2022-07-23T04:32:37;99776.06;;;25.81;48.93
54512;BME280;40419;47.438;19.026;2022-07-23T04:35:11;99779.34;;;25.83;49.79
54512;BME280;40419;47.438;19.026;2022-07-23T04:37:37;99779.78;;;25.91;49.62
54512;BME280;40419;47.438;19.026;2022-07-23T04:40:05;99777.66;;;26.02;49.07
54512;BME280;40419;47.438;19.026;2022-07-23T04:42:33;99778.97;;;26.04;48.64
54512;BME280;40419;47.438;19.026;2022-07-23T04:45:01;99778.25;;;26.12;48.12
54512;BME280;40419;47.438;19.026;2022-07-23T04:47:33;99785.13;;;26.01;50.27
54512;BME280;40419;47.438;19.026;2022-07-23T04:50:01;99775.84;;;25.78;49.29
54512;BME280;40419;47.438;19.026;2022-07-23T04:52:31;99785.41;;;25.72;49.71
54512;BME280;40419;47.438;19.026;2022-07-23T04:54:58;99780.38;;;25.74;51.02
54512;BME280;40419;47.438;19.026;2022-07-23T04:57:27;99778.31;;;25.79;51.68
54512;BME280;40419;47.438;19.026;2022-07-23T04:59:55;99786.34;;;25.95;50.13
54512;BME280;40419;47.438;19.026;2022-07-23T05:02:20;99785.66;;;26.17;50.08
54512;BME280;40419;47.438;19.026;2022-07-23T05:04:51;99789.84;;;26.28;49.22
54512;BME280;40419;47.438;19.026;2022-07-23T05:07:19;99783.47;;;26.42;47.95
54512;BME280;40419;47.438;19.026;2022-07-23T05:09:47;99783.66;;;26.59;47.82
54512;BME280;40419;47.438;19.026;2022-07-23T05:12:13;99784.13;;;26.75;47.83
54512;BME280;40419;47.438;19.026;2022-07-23T05:14:41;99777.78;;;26.61;47.30
54512;BME280;40419;47.438;19.026;2022-07-23T05:17:07;99785.06;;;26.84;46.49
54512;BME280;40419;47.438;19.026;2022-07-23T05:19:34;99779.91;;;26.78;47.54
54512;BME280;40419;47.438;19.026;2022-07-23T05:21:59;99786.44;;;26.96;46.74
54512;BME280;40419;47.438;19.026;2022-07-23T05:24:25;99777.66;;;26.66;46.26
54512;BME280;40419;47.438;19.026;2022-07-23T05:26:53;99780.31;;;26.85;45.94
54512;BME280;40419;47.438;19.026;2022-07-23T05:29:19;99784.13;;;26.75;45.21
54512;BME280;40419;47.438;19.026;2022-07-23T05:31:45;99793.72;;;26.69;44.55
54512;BME280;40419;47.438;19.026;2022-07-23T05:34:11;99797.16;;;26.88;45.96
54512;BME280;40419;47.438;19.026;2022-07-23T05:36:37;99788.91;;;26.97;45.10
54512;BME280;40419;47.438;19.026;2022-07-23T05:39:04;99787.41;;;27.14;45.00
54512;BME280;40419;47.438;19.026;2022-07-23T05:41:35;99786.25;;;27.15;46.01
54512;BME280;40419;47.438;19.026;2022-07-23T05:44:08;99793.03;;;27.45;46.03
54512;BME280;40419;47.438;19.026;2022-07-23T05:46:38;99789.41;;;27.22;44.39
54512;BME280;40419;47.438;19.026;2022-07-23T05:49:06;99794.47;;;27.43;45.32
54512;BME280;40419;47.438;19.026;2022-07-23T05:51:50;99786.47;;;27.72;43.90
54512;BME280;40419;47.438;19.026;2022-07-23T05:54:25;99786.78;;;27.71;43.80
54512;BME280;40419;47.438;19.026;2022-07-23T05:56:51;99778.22;;;27.58;44.72
54512;BME280;40419;47.438;19.026;2022-07-23T05:59:17;99783.88;;;27.76;43.29
54512;BME280;40419;47.438;19.026;2022-07-23T06:01:43;99783.47;;;27.60;43.70
54512;BME280;40419;47.438;19.026;2022-07-23T06:04:13;99785.63;;;27.72;44.30
54512;BME280;40419;47.438;19.026;2022-07-23T06:06:47;99788.66;;;27.84;42.19
54512;BME280;40419;47.438;19.026;2022-07-23T06:09:20;99788.47;;;28.12;43.17
54512;BME280;40419;47.438;19.026;2022-07-23T06:11:46;99787.19;;;28.27;42.98
54512;BME280;40419;47.438;19.026;2022-07-23T06:14:17;99773.63;;;28.34;40.32
54512;BME280;40419;47.438;19.026;2022-07-23T06:16:50;99766.44;;;28.51;40.98
54512;BME280;40419;47.438;19.026;2022-07-23T06:19:25;99761.53;;;28.48;39.62
54512;BME280;40419;47.438;19.026;2022-07-23T06:21:52;99762.19;;;28.44;40.44
54512;BME280;40419;47.438;19.026;2022-07-23T06:24:17;99769.94;;;28.74;39.24
54512;BME280;40419;47.438;19.026;2022-07-23T06:26:43;99766.31;;;28.64;39.68
54512;BME280;40419;47.438;19.026;2022-07-23T06:29:09;99755.50;;;28.89;38.77
54512;BME280;40419;47.438;19.026;2022-07-23T06:31:35;99760.09;;;28.85;39.28
54512;BME280;40419;47.438;19.026;2022-07-23T06:34:00;99763.88;;;28.98;39.71
54512;BME280;40419;47.438;19.026;2022-07-23T06:36:28;99771.22;;;28.94;39.16
54512;BME280;40419;47.438;19.026;2022-07-23T06:38:54;99769.28;;;28.86;38.91
54512;BME280;40419;47.438;19.026;2022-07-23T06:41:21;99759.56;;;29.18;39.17
54512;BME280;40419;47.438;19.026;2022-07-23T06:43:49;99765.31;;;29.30;39.93
54512;BME280;40419;47.438;19.026;2022-07-23T06:46:16;99768.13;;;29.22;38.72
54512;BME280;40419;47.438;19.026;2022-07-23T06:48:42;99765.81;;;29.24;37.91
54512;BME280;40419;47.438;19.026;2022-07-23T06:51:09;99757.44;;;29.32;38.42
54512;BME280;40419;47.438;19.026;2022-07-23T06:53:37;99768.16;;;29.69;37.78
54512;BME280;40419;47.438;19.026;2022-07-23T06:56:08;99764.25;;;29.61;36.89
54512;BME280;40419;47.438;19.026;2022-07-23T06:58:33;99768.09;;;29.39;38.70
54512;BME280;40419;47.438;19.026;2022-07-23T07:01:01;99766.28;;;29.43;38.47
54512;BME280;40419;47.438;19.026;2022-07-23T07:03:30;99766.03;;;29.66;38.01
54512;BME280;40419;47.438;19.026;2022-07-23T07:05:58;99764.16;;;29.87;37.35
54512;BME280;40419;47.438;19.026;2022-07-23T07:08:23;99757.97;;;29.82;37.07
54512;BME280;40419;47.438;19.026;2022-07-23T07:10:52;99761.25;;;29.84;38.26
54512;BME280;40419;47.438;19.026;2022-07-23T07:13:17;99760.19;;;29.97;37.54
54512;BME280;40419;47.438;19.026;2022-07-23T07:15:42;99753.06;;;30.09;38.98
54512;BME280;40419;47.438;19.026;2022-07-23T07:18:14;99751.13;;;30.09;36.72
54512;BME280;40419;47.438;19.026;2022-07-23T07:20:41;99749.81;;;30.07;37.22
54512;BME280;40419;47.438;19.026;2022-07-23T07:23:09;99750.88;;;30.23;36.50
54512;BME280;40419;47.438;19.026;2022-07-23T07:25:35;99745.00;;;30.16;36.60
54512;BME280;40419;47.438;19.026;2022-07-23T07:28:03;99740.25;;;30.37;36.72
54512;BME280;40419;47.438;19.026;2022-07-23T07:30:31;99744.88;;;30.33;35.48
54512;BME280;40419;47.438;19.026;2022-07-23T07:32:57;99741.25;;;30.42;35.82
54512;BME280;40419;47.438;19.026;2022-07-23T07:35:25;99745.78;;;30.88;35.60
54512;BME280;40419;47.438;19.026;2022-07-23T07:37:51;99738.56;;;30.87;36.16
54512;BME280;40419;47.438;19.026;2022-07-23T07:40:18;99759.50;;;31.02;35.46
54512;BME280;40419;47.438;19.026;2022-07-23T07:42:45;99750.63;;;31.21;35.81
54512;BME280;40419;47.438;19.026;2022-07-23T07:45:13;99749.81;;;31.21;35.37
54512;BME280;40419;47.438;19.026;2022-07-23T07:47:49;99742.13;;;31.30;35.37
54512;BME280;40419;47.438;19.026;2022-07-23T07:50:15;99745.31;;;31.53;35.23
54512;BME280;40419;47.438;19.026;2022-07-23T07:52:46;99742.22;;;31.55;34.18
54512;BME280;40419;47.438;19.026;2022-07-23T07:55:12;99738.97;;;31.65;34.85
54512;BME280;40419;47.438;19.026;2022-07-23T07:57:38;99735.34;;;31.65;34.71
54512;BME280;40419;47.438;19.026;2022-07-23T08:00:05;99740.25;;;31.80;34.58
54512;BME280;40419;47.438;19.026;2022-07-23T08:02:49;99738.16;;;32.02;33.87
54512;BME280;40419;47.438;19.026;2022-07-23T08:05:22;99743.16;;;32.33;33.58
54512;BME280;40419;47.438;19.026;2022-07-23T08:07:53;99742.78;;;32.47;33.21
54512;BME280;40419;47.438;19.026;2022-07-23T08:10:20;99752.16;;;32.26;33.09
54512;BME280;40419;47.438;19.026;2022-07-23T08:12:47;99753.75;;;32.52;33.04
54512;BME280;40419;47.438;19.026;2022-07-23T08:15:14;99757.81;;;32.67;32.92
54512;BME280;40419;47.438;19.026;2022-07-23T08:17:48;99750.66;;;32.82;32.77
54512;BME280;40419;47.438;19.026;2022-07-23T08:20:18;99744.94;;;32.78;32.50
54512;BME280;40419;47.438;19.026;2022-07-23T08:25:27;99737.50;;;32.98;32.40
54512;BME280;40419;47.438;19.026;2022-07-23T08:27:55;99735.34;;;33.08;31.69
54512;BME280;40419;47.438;19.026;2022-07-23T08:30:26;99734.56;;;33.35;32.50
54512;BME280;40419;47.438;19.026;2022-07-23T08:33:09;99734.72;;;33.27;31.89
54512;BME280;40419;47.438;19.026;2022-07-23T08:35:42;99737.97;;;33.29;30.73
54512;BME280;40419;47.438;19.026;2022-07-23T08:38:11;99748.00;;;33.30;31.48
54512;BME280;40419;47.438;19.026;2022-07-23T08:40:44;99746.22;;;33.37;30.53
54512;BME280;40419;47.438;19.026;2022-07-23T08:43:13;99742.34;;;33.14;30.12
54512;BME280;40419;47.438;19.026;2022-07-23T08:45:44;99738.47;;;33.63;31.95
54512;BME280;40419;47.438;19.026;2022-07-23T08:48:18;99744.69;;;33.72;30.32
54512;BME280;40419;47.438;19.026;2022-07-23T08:50:49;99741.75;;;33.81;29.99
54512;BME280;40419;47.438;19.026;2022-07-23T08:53:18;99738.84;;;33.93;29.58
54512;BME280;40419;47.438;19.026;2022-07-23T08:55:52;99742.44;;;33.94;29.94
54512;BME280;40419;47.438;19.026;2022-07-23T08:58:18;99739.34;;;34.15;29.68
54512;BME280;40419;47.438;19.026;2022-07-23T09:00:49;99739.88;;;34.20;30.25
54512;BME280;40419;47.438;19.026;2022-07-23T09:03:19;99734.53;;;34.31;30.50
54512;BME280;40419;47.438;19.026;2022-07-23T09:05:45;99729.34;;;34.33;29.13
54512;BME280;40419;47.438;19.026;2022-07-23T09:13:31;99729.91;;;34.23;29.72
54512;BME280;40419;47.438;19.026;2022-07-23T09:16:24;99738.41;;;34.42;29.36
54512;BME280;40419;47.438;19.026;2022-07-23T09:18:56;99732.72;;;34.58;28.58
54512;BME280;40419;47.438;19.026;2022-07-23T09:21:29;99730.84;;;34.66;29.14
54512;BME280;40419;47.438;19.026;2022-07-23T09:24:01;99735.69;;;34.66;29.44
54512;BME280;40419;47.438;19.026;2022-07-23T09:26:33;99738.44;;;34.82;29.50
54512;BME280;40419;47.438;19.026;2022-07-23T09:32:02;99733.47;;;34.94;28.48
54512;BME280;40419;47.438;19.026;2022-07-23T09:34:34;99731.25;;;35.04;29.43
54512;BME280;40419;47.438;19.026;2022-07-23T09:37:14;99723.94;;;34.79;28.84
54512;BME280;40419;47.438;19.026;2022-07-23T09:39:45;99733.34;;;34.87;28.24
54512;BME280;40419;47.438;19.026;2022-07-23T09:42:18;99732.16;;;34.88;29.42
54512;BME280;40419;47.438;19.026;2022-07-23T09:44:48;99730.81;;;35.02;29.00
54512;BME280;40419;47.438;19.026;2022-07-23T09:47:17;99720.56;;;34.74;28.17
54512;BME280;40419;47.438;19.026;2022-07-23T09:50:06;99720.94;;;34.72;28.47
54512;BME280;40419;47.438;19.026;2022-07-23T09:52:43;99706.91;;;34.92;28.42
54512;BME280;40419;47.438;19.026;2022-07-23T09:55:13;99714.28;;;35.20;28.90
54512;BME280;40419;47.438;19.026;2022-07-23T09:57:43;99710.56;;;35.35;28.51
54512;BME280;40419;47.438;19.026;2022-07-23T10:00:16;99712.06;;;35.52;27.73
54512;BME280;40419;47.438;19.026;2022-07-23T10:02:49;99711.63;;;35.50;27.33
54512;BME280;40419;47.438;19.026;2022-07-23T10:05:28;99714.94;;;35.56;28.06
54512;BME280;40419;47.438;19.026;2022-07-23T10:08:18;99711.81;;;35.61;27.73
54512;BME280;40419;47.438;19.026;2022-07-23T10:11:11;99710.97;;;35.80;27.93
54512;BME280;40419;47.438;19.026;2022-07-23T10:13:54;99710.34;;;35.71;27.26
54512;BME280;40419;47.438;19.026;2022-07-23T10:16:40;99707.50;;;35.44;26.88
54512;BME280;40419;47.438;19.026;2022-07-23T10:19:08;99706.28;;;35.22;27.88
54512;BME280;40419;47.438;19.026;2022-07-23T10:24:30;99689.22;;;35.34;27.96
54512;BME280;40419;47.438;19.026;2022-07-23T10:30:04;99704.50;;;35.56;27.55
54512;BME280;40419;47.438;19.026;2022-07-23T10:35:29;99695.13;;;35.98;27.54
54512;BME280;40419;47.438;19.026;2022-07-23T10:38:02;99697.59;;;35.77;27.33
54512;BME280;40419;47.438;19.026;2022-07-23T10:40:33;99691.81;;;35.93;27.28
54512;BME280;40419;47.438;19.026;2022-07-23T10:43:00;99681.81;;;35.95;26.87
54512;BME280;40419;47.438;19.026;2022-07-23T10:45:33;99688.44;;;35.80;28.48
54512;BME280;40419;47.438;19.026;2022-07-23T10:48:17;99689.28;;;35.84;27.16
54512;BME280;40419;47.438;19.026;2022-07-23T10:51:21;99682.78;;;35.80;26.41
54512;BME280;40419;47.438;19.026;2022-07-23T10:53:58;99675.19;;;35.84;26.69
54512;BME280;40419;47.438;19.026;2022-07-23T10:57:15;99676.09;;;35.92;27.29
54512;BME280;40419;47.438;19.026;2022-07-23T11:02:29;99675.53;;;36.06;27.14
54512;BME280;40419;47.438;19.026;2022-07-23T11:05:05;99663.50;;;36.09;25.67
54512;BME280;40419;47.438;19.026;2022-07-23T11:07:33;99661.00;;;36.04;26.47
54512;BME280;40419;47.438;19.026;2022-07-23T11:09:59;99654.75;;;36.17;24.88
54512;BME280;40419;47.438;19.026;2022-07-23T11:17:26;99645.06;;;36.15;26.39
54512;BME280;40419;47.438;19.026;2022-07-23T11:25:29;99633.22;;;36.32;25.75
54512;BME280;40419;47.438;19.026;2022-07-23T11:28:11;99633.63;;;36.31;25.69
54512;BME280;40419;47.438;19.026;2022-07-23T11:30:43;99634.03;;;36.03;25.88
54512;BME280;40419;47.438;19.026;2022-07-23T11:35:37;99633.66;;;36.04;24.75
54512;BME280;40419;47.438;19.026;2022-07-23T11:38:08;99630.47;;;36.06;25.23
54512;BME280;40419;47.438;19.026;2022-07-23T11:40:39;99628.25;;;36.22;26.25
54512;BME280;40419;47.438;19.026;2022-07-23T11:43:09;99629.81;;;36.19;25.43
54512;BME280;40419;47.438;19.026;2022-07-23T11:45:48;99624.22;;;36.23;24.91
54512;BME280;40419;47.438;19.026;2022-07-23T11:50:43;99625.63;;;36.36;24.89
54512;BME280;40419;47.438;19.026;2022-07-23T11:53:08;99610.00;;;36.12;24.21
54512;BME280;40419;47.438;19.026;2022-07-23T11:55:38;99608.09;;;36.20;24.74
54512;BME280;40419;47.438;19.026;2022-07-23T11:58:03;99600.50;;;36.24;24.68
54512;BME280;40419;47.438;19.026;2022-07-23T12:00:32;99586.78;;;36.53;25.65
54512;BME280;40419;47.438;19.026;2022-07-23T12:03:05;99591.53;;;36.45;24.26
54512;BME280;40419;47.438;19.026;2022-07-23T12:05:34;99593.09;;;36.43;23.87
54512;BME280;40419;47.438;19.026;2022-07-23T12:08:01;99593.59;;;36.18;23.85
54512;BME280;40419;47.438;19.026;2022-07-23T12:10:36;99587.66;;;35.96;23.64
54512;BME280;40419;47.438;19.026;2022-07-23T12:13:10;99590.72;;;35.84;24.77
54512;BME280;40419;47.438;19.026;2022-07-23T12:15:52;99583.53;;;35.90;24.30
54512;BME280;40419;47.438;19.026;2022-07-23T12:18:21;99581.03;;;36.12;24.61
54512;BME280;40419;47.438;19.026;2022-07-23T12:20:49;99578.88;;;36.01;24.95
54512;BME280;40419;47.438;19.026;2022-07-23T12:23:16;99576.22;;;35.82;25.22
54512;BME280;40419;47.438;19.026;2022-07-23T12:25:46;99572.25;;;35.87;25.38
54512;BME280;40419;47.438;19.026;2022-07-23T12:28:18;99570.19;;;35.83;26.23
54512;BME280;40419;47.438;19.026;2022-07-23T12:30:51;99561.13;;;35.71;26.32
54512;BME280;40419;47.438;19.026;2022-07-23T12:36:01;99558.13;;;36.17;25.31
54512;BME280;40419;47.438;19.026;2022-07-23T12:38:37;99559.41;;;36.23;24.30
54512;BME280;40419;47.438;19.026;2022-07-23T12:41:06;99556.22;;;36.25;24.30
54512;BME280;40419;47.438;19.026;2022-07-23T12:43:36;99555.00;;;36.22;24.48
54512;BME280;40419;47.438;19.026;2022-07-23T12:48:57;99546.22;;;36.27;24.19
54512;BME280;40419;47.438;19.026;2022-07-23T12:51:31;99538.19;;;36.29;23.81
54512;BME280;40419;47.438;19.026;2022-07-23T12:54:05;99543.81;;;36.29;23.75
54512;BME280;40419;47.438;19.026;2022-07-23T12:56:36;99532.94;;;36.28;23.92
54512;BME280;40419;47.438;19.026;2022-07-23T12:59:07;99526.22;;;36.40;23.72
54512;BME280;40419;47.438;19.026;2022-07-23T13:01:39;99531.97;;;36.50;23.97
54512;BME280;40419;47.438;19.026;2022-07-23T13:04:20;99529.31;;;36.27;23.32
54512;BME280;40419;47.438;19.026;2022-07-23T13:06:59;99524.00;;;36.22;24.69
54512;BME280;40419;47.438;19.026;2022-07-23T13:09:29;99521.69;;;35.97;24.80
54512;BME280;40419;47.438;19.026;2022-07-23T13:11:56;99528.44;;;35.89;25.02
54512;BME280;40419;47.438;19.026;2022-07-23T13:14:22;99517.94;;;35.86;24.35
54512;BME280;40419;47.438;19.026;2022-07-23T13:16:52;99518.78;;;35.90;23.96
54512;BME280;40419;47.438;19.026;2022-07-23T13:19:18;99517.03;;;36.12;24.19
54512;BME280;40419;47.438;19.026;2022-07-23T13:21:44;99517.25;;;36.27;23.47
54512;BME280;40419;47.438;19.026;2022-07-23T13:24:11;99510.00;;;36.29;24.15
54512;BME280;40419;47.438;19.026;2022-07-23T13:26:40;99508.41;;;36.28;24.11
54512;BME280;40419;47.438;19.026;2022-07-23T13:29:06;99500.09;;;36.43;23.89
54512;BME280;40419;47.438;19.026;2022-07-23T13:31:32;99499.97;;;36.32;25.25
54512;BME280;40419;47.438;19.026;2022-07-23T13:34:00;99495.91;;;36.29;24.55
54512;BME280;40419;47.438;19.026;2022-07-23T13:36:27;99489.97;;;36.38;24.39
54512;BME280;40419;47.438;19.026;2022-07-23T13:38:56;99489.47;;;36.29;23.90
54512;BME280;40419;47.438;19.026;2022-07-23T13:41:21;99480.53;;;36.23;23.88
54512;BME280;40419;47.438;19.026;2022-07-23T13:43:51;99476.72;;;36.42;23.63
54512;BME280;40419;47.438;19.026;2022-07-23T13:46:17;99488.31;;;36.33;23.86